createdAt,value
2018-04-11T00:01:21.775Z,14.03
2018-04-11T00:03:50.050Z,14.08
2018-04-11T00:06:18.320Z,14.16
2018-04-11T00:08:46.602Z,14.10
2018-04-11T00:11:14.868Z,14.00
2018-04-11T00:13:43.130Z,13.89
2018-04-11T00:16:11.409Z,13.98
2018-04-11T00:18:39.684Z,13.68
2018-04-11T00:21:07.966Z,13.85
2018-04-11T00:23:36.231Z,13.84
2018-04-11T00:26:04.498Z,13.68
2018-04-11T00:28:32.786Z,13.40
2018-04-11T00:31:01.057Z,13.39
2018-04-11T00:33:29.319Z,13.43
2018-04-11T00:35:57.587Z,13.51
2018-04-11T00:38:25.846Z,13.06
2018-04-11T00:40:54.120Z,13.38
2018-04-11T00:43:22.386Z,13.18
2018-04-11T00:45:50.658Z,13.12
2018-04-11T00:48:18.927Z,13.21
2018-04-11T00:50:47.195Z,13.08
2018-04-11T00:53:27.090Z,12.89
2018-04-11T00:55:55.354Z,12.83
2018-04-11T00:58:23.615Z,12.71
2018-04-11T01:00:51.889Z,12.91
2018-04-11T01:03:20.151Z,12.72
2018-04-11T01:05:48.694Z,12.79
2018-04-11T01:08:16.970Z,12.60
2018-04-11T01:10:45.249Z,12.70
2018-04-11T01:13:13.520Z,12.87
2018-04-11T01:15:41.790Z,12.96
2018-04-11T01:18:10.086Z,13.02
2018-04-11T01:20:38.354Z,13.08
2018-04-11T01:23:06.623Z,13.21
2018-04-11T01:25:34.899Z,12.98
2018-04-11T01:28:03.168Z,12.84
2018-04-11T01:30:31.442Z,12.92
2018-04-11T01:32:59.714Z,13.03
2018-04-11T01:35:27.985Z,12.94
2018-04-11T01:37:56.259Z,13.08
2018-04-11T01:40:24.527Z,12.99
2018-04-11T01:42:52.806Z,13.09
2018-04-11T01:45:21.078Z,13.14
2018-04-11T01:47:49.347Z,13.02
2018-04-11T01:50:17.887Z,13.11
2018-04-11T01:52:46.154Z,12.89
2018-04-11T01:55:14.430Z,13.04
2018-04-11T01:57:42.722Z,13.03
2018-04-11T02:00:10.989Z,13.25
2018-04-11T02:02:39.249Z,13.40
2018-04-11T02:05:07.530Z,13.33
2018-04-11T02:07:41.560Z,13.11
2018-04-11T02:10:09.839Z,13.19
2018-04-11T02:12:38.107Z,13.22
2018-04-11T02:15:06.370Z,12.92
2018-04-11T02:17:34.648Z,13.32
2018-04-11T02:20:02.957Z,13.40
2018-04-11T02:22:31.207Z,13.38
2018-04-11T02:24:59.468Z,13.43
2018-04-11T02:27:27.731Z,13.26
2018-04-11T02:29:56.009Z,13.35
2018-04-11T02:32:24.285Z,13.38
2018-04-11T02:34:52.576Z,13.33
2018-04-11T02:37:20.836Z,13.33
2018-04-11T02:39:49.106Z,13.33
2018-04-11T02:42:17.388Z,13.50
2018-04-11T02:44:45.677Z,13.24
2018-04-11T02:47:13.954Z,13.33
2018-04-11T02:49:42.239Z,13.38
2018-04-11T02:52:10.508Z,13.42
2018-04-11T02:54:38.782Z,13.38
2018-04-11T02:57:07.060Z,13.38
2018-04-11T02:59:35.338Z,13.30
2018-04-11T03:02:03.606Z,13.44
2018-04-11T03:04:31.879Z,13.32
2018-04-11T03:07:00.145Z,13.41
2018-04-11T03:09:28.420Z,13.24
2018-04-11T03:11:56.694Z,13.30
2018-04-11T03:14:24.964Z,13.35
2018-04-11T03:16:53.230Z,13.19
2018-04-11T03:19:21.506Z,13.44
2018-04-11T03:21:49.818Z,13.35
2018-04-11T03:24:18.059Z,13.40
2018-04-11T03:26:46.331Z,13.40
2018-04-11T03:29:14.598Z,13.45
2018-04-11T03:31:42.878Z,13.46
2018-04-11T03:34:11.150Z,13.51
2018-04-11T03:36:39.434Z,13.44
2018-04-11T03:39:07.706Z,13.36
2018-04-11T03:41:35.973Z,13.38
2018-04-11T03:44:04.260Z,13.43
2018-04-11T03:46:32.530Z,13.22
2018-04-11T03:49:00.813Z,13.06
2018-04-11T03:51:29.081Z,13.28
2018-04-11T03:53:57.346Z,13.39
2018-04-11T03:56:25.626Z,13.25
2018-04-11T03:58:53.898Z,13.01
2018-04-11T04:01:22.187Z,13.13
2018-04-11T04:03:50.458Z,13.26
2018-04-11T04:06:18.731Z,13.28
2018-04-11T04:08:47.042Z,12.76
2018-04-11T04:11:15.317Z,12.61
2018-04-11T04:13:55.386Z,12.95
2018-04-11T04:16:35.244Z,12.84
2018-04-11T04:19:15.149Z,12.66
2018-04-11T04:21:43.414Z,12.92
2018-04-11T04:24:11.678Z,12.97
2018-04-11T04:26:39.953Z,13.08
2018-04-11T04:29:08.222Z,13.08
2018-04-11T04:31:36.510Z,12.94
2018-04-11T04:34:04.774Z,12.96
2018-04-11T04:36:33.057Z,13.00
2018-04-11T04:39:01.343Z,13.03
2018-04-11T04:41:29.617Z,12.91
2018-04-11T04:43:57.900Z,13.10
2018-04-11T04:46:26.177Z,13.10
2018-04-11T04:48:54.443Z,12.66
2018-04-11T04:51:22.739Z,12.72
2018-04-11T04:53:51.014Z,13.02
2018-04-11T04:56:19.327Z,12.83
2018-04-11T04:58:47.613Z,12.88
2018-04-11T05:01:15.896Z,12.86
2018-04-11T05:03:44.201Z,12.80
2018-04-11T05:06:12.469Z,12.84
2018-04-11T05:08:40.763Z,12.77
2018-04-11T05:11:09.033Z,12.61
2018-04-11T05:13:37.318Z,12.58
2018-04-11T05:16:05.614Z,12.58
2018-04-11T05:18:33.890Z,12.52
2018-04-11T05:21:02.191Z,12.78
2018-04-11T05:23:30.478Z,12.83
2018-04-11T05:25:58.739Z,12.95
2018-04-11T05:28:27.119Z,12.67
2018-04-11T05:30:55.394Z,12.79
2018-04-11T05:33:23.673Z,12.89
2018-04-11T05:35:51.946Z,12.92
2018-04-11T05:38:20.234Z,12.87
2018-04-11T05:40:49.006Z,13.00
2018-04-11T05:43:17.270Z,13.02
2018-04-11T05:45:45.565Z,13.11
2018-04-11T05:48:13.843Z,12.91
2018-04-11T05:50:42.133Z,12.31
2018-04-11T05:53:10.407Z,12.30
2018-04-11T05:55:38.699Z,12.69
2018-04-11T05:58:06.970Z,12.72
2018-04-11T06:00:35.246Z,12.79
2018-04-11T06:03:03.542Z,12.93
2018-04-11T06:05:31.832Z,12.87
2018-04-11T06:08:00.122Z,12.81
2018-04-11T06:10:28.406Z,12.66
2018-04-11T06:12:56.696Z,12.74
2018-04-11T06:15:24.971Z,12.62
2018-04-11T06:17:53.246Z,12.84
2018-04-11T06:20:21.539Z,12.75
2018-04-11T06:22:49.830Z,12.56
2018-04-11T06:25:18.139Z,12.38
2018-04-11T06:27:46.418Z,12.37
2018-04-11T06:30:14.725Z,12.27
2018-04-11T06:32:43.007Z,12.46
2018-04-11T06:35:11.297Z,12.38
2018-04-11T06:37:39.583Z,12.30
2018-04-11T06:40:07.866Z,12.37
2018-04-11T06:42:36.158Z,12.36
2018-04-11T06:45:04.444Z,12.36
2018-04-11T06:47:32.757Z,12.47
2018-04-11T06:50:01.047Z,12.44
2018-04-11T06:52:29.338Z,12.49
2018-04-11T06:54:57.631Z,12.43
2018-04-11T06:57:25.914Z,12.36
2018-04-11T06:59:54.207Z,12.37
2018-04-11T07:02:22.493Z,12.26
2018-04-11T07:04:50.817Z,12.39
2018-04-11T07:07:19.096Z,12.59
2018-04-11T07:09:47.382Z,12.35
2018-04-11T07:12:15.685Z,12.53
2018-04-11T07:14:43.978Z,12.42
2018-04-11T07:17:12.264Z,12.54
2018-04-11T07:19:40.551Z,12.27
2018-04-11T07:22:08.858Z,12.31
2018-04-11T07:24:37.142Z,12.53
2018-04-11T07:27:05.422Z,12.55
2018-04-11T07:29:33.711Z,12.51
2018-04-11T07:32:02.002Z,12.48
2018-04-11T07:34:30.298Z,12.67
2018-04-11T07:36:58.582Z,12.33
2018-04-11T07:39:27.122Z,12.29
2018-04-11T07:41:55.403Z,12.29
2018-04-11T07:44:23.679Z,12.40
2018-04-11T07:46:51.970Z,12.38
2018-04-11T07:49:20.258Z,12.29
2018-04-11T07:51:49.270Z,12.48
2018-04-11T07:54:17.559Z,12.21
2018-04-11T07:56:45.878Z,12.43
2018-04-11T07:59:14.170Z,12.45
2018-04-11T08:01:42.458Z,12.49
2018-04-11T08:04:10.755Z,12.50
2018-04-11T08:06:39.040Z,12.61
2018-04-11T08:09:07.327Z,12.72
2018-04-11T08:11:35.610Z,12.37
2018-04-11T08:14:04.146Z,12.75
2018-04-11T08:16:32.471Z,12.70
2018-04-11T08:19:00.748Z,12.73
2018-04-11T08:21:29.054Z,12.80
2018-04-11T08:23:56.769Z,12.87
2018-04-11T08:26:25.070Z,12.89
2018-04-11T08:28:53.352Z,12.98
2018-04-11T08:31:21.645Z,13.06
2018-04-11T08:33:49.934Z,13.16
2018-04-11T08:36:18.217Z,13.27
2018-04-11T08:38:45.953Z,13.20
2018-04-11T08:41:14.266Z,13.24
2018-04-11T08:43:42.552Z,13.27
2018-04-11T08:46:10.834Z,13.25
2018-04-11T08:48:39.146Z,13.38
2018-04-11T08:51:07.428Z,13.58
2018-04-11T08:53:35.714Z,13.50
2018-04-11T08:56:04.006Z,13.58
2018-04-11T08:58:32.637Z,13.63
2018-04-11T09:01:00.902Z,13.72
2018-04-11T09:03:29.178Z,13.70
2018-04-11T09:05:57.482Z,13.78
2018-04-11T09:08:25.769Z,13.74
2018-04-11T09:10:54.049Z,13.78
2018-04-11T09:13:22.338Z,13.73
2018-04-11T09:15:50.605Z,13.71
2018-04-11T09:18:18.944Z,13.67
2018-04-11T09:20:47.210Z,13.66
2018-04-11T09:23:15.498Z,13.71
2018-04-11T09:25:43.779Z,13.80
2018-04-11T09:28:12.049Z,13.85
2018-04-11T09:30:40.334Z,13.75
2018-04-11T09:33:08.654Z,13.94
2018-04-11T09:35:36.883Z,13.82
2018-04-11T09:38:05.159Z,13.85
2018-04-11T09:40:33.691Z,13.85
2018-04-11T09:43:01.978Z,13.97
2018-04-11T09:45:30.247Z,13.91
2018-04-11T09:47:58.535Z,13.94
2018-04-11T09:50:26.810Z,14.15
2018-04-11T09:52:55.102Z,14.09
2018-04-11T09:55:23.394Z,14.04
2018-04-11T09:57:51.677Z,14.00
2018-04-11T10:00:19.968Z,14.03
2018-04-11T10:02:54.178Z,13.91
2018-04-11T10:05:22.813Z,13.97
2018-04-11T10:07:51.166Z,13.98
2018-04-11T10:10:19.470Z,14.09
2018-04-11T10:12:48.613Z,14.09
2018-04-11T10:15:16.894Z,14.08
2018-04-11T10:17:45.178Z,13.86
2018-04-11T10:20:13.460Z,13.93
2018-04-11T10:22:41.746Z,14.02
2018-04-11T10:25:10.035Z,13.55
2018-04-11T10:27:38.346Z,13.92
2018-04-11T10:30:06.644Z,14.12
2018-04-11T10:32:34.950Z,14.25
2018-04-11T10:35:03.202Z,14.44
2018-04-11T10:37:31.478Z,14.55
2018-04-11T10:39:59.763Z,14.63
2018-04-11T10:42:28.038Z,14.56
2018-04-11T10:44:56.325Z,14.78
2018-04-11T10:47:24.624Z,14.61
2018-04-11T10:49:53.047Z,14.64
2018-04-11T10:52:21.314Z,14.67
2018-04-11T10:54:49.589Z,14.64
2018-04-11T10:57:17.866Z,14.23
2018-04-11T10:59:46.135Z,14.41
2018-04-11T11:02:14.427Z,14.32
2018-04-11T11:04:42.699Z,14.70
2018-04-11T11:07:11.244Z,14.74
2018-04-11T11:09:39.531Z,14.89
2018-04-11T11:12:08.806Z,14.79
2018-04-11T11:14:37.102Z,14.94
2018-04-11T11:17:05.374Z,14.78
2018-04-11T11:19:33.666Z,14.69
2018-04-11T11:22:01.946Z,14.36
2018-04-11T11:24:30.241Z,14.59
2018-04-11T11:26:58.516Z,14.75
2018-04-11T11:29:26.783Z,14.69
2018-04-11T11:31:55.074Z,14.81
2018-04-11T11:34:23.353Z,14.76
2018-04-11T11:36:51.621Z,15.13
2018-04-11T11:39:19.935Z,15.39
2018-04-11T11:41:48.230Z,15.38
2018-04-11T11:44:16.498Z,15.05
2018-04-11T11:46:44.766Z,14.92
2018-04-11T11:49:13.053Z,15.28
2018-04-11T11:51:41.329Z,14.79
2018-04-11T11:54:09.624Z,14.85
2018-04-11T11:59:34.694Z,14.95
2018-04-11T12:02:02.966Z,14.46
2018-04-11T12:04:31.257Z,14.78
2018-04-11T12:06:59.530Z,14.83
2018-04-11T12:09:27.803Z,14.70
2018-04-11T12:11:56.166Z,15.00
2018-04-11T12:14:24.387Z,14.83
2018-04-11T12:16:52.690Z,14.97
2018-04-11T12:19:20.960Z,15.25
2018-04-11T12:21:49.239Z,15.39
2018-04-11T12:24:17.522Z,15.22
2018-04-11T12:26:45.793Z,15.31
2018-04-11T12:29:14.083Z,15.40
2018-04-11T12:31:42.354Z,15.29
2018-04-11T12:34:10.626Z,15.57
2018-04-11T12:36:38.937Z,15.40
2018-04-11T12:39:07.248Z,15.33
2018-04-11T12:41:35.547Z,15.39
2018-04-11T12:44:03.821Z,15.30
2018-04-11T12:46:32.104Z,15.37
2018-04-11T12:49:00.378Z,15.52
2018-04-11T12:51:28.650Z,15.79
2018-04-11T12:53:56.954Z,15.88
2018-04-11T12:56:25.244Z,16.20
2018-04-11T12:58:53.551Z,15.53
2018-04-11T13:01:21.847Z,15.87
2018-04-11T13:03:50.122Z,15.96
2018-04-11T13:06:18.409Z,16.26
2018-04-11T13:08:46.687Z,16.20
2018-04-11T13:11:14.966Z,15.35
2018-04-11T13:13:43.250Z,15.70
2018-04-11T13:16:11.531Z,15.82
2018-04-11T13:18:39.814Z,16.13
2018-04-11T13:21:08.082Z,16.18
2018-04-11T13:23:36.354Z,15.87
2018-04-11T13:26:04.645Z,15.71
2018-04-11T13:28:32.911Z,16.10
2018-04-11T13:31:01.202Z,16.01
2018-04-11T13:33:29.473Z,16.13
2018-04-11T13:35:57.755Z,15.93
2018-04-11T13:38:26.031Z,16.13
2018-04-11T13:40:54.294Z,15.81
2018-04-11T13:43:22.577Z,16.30
2018-04-11T13:45:50.860Z,16.52
2018-04-11T13:48:19.107Z,16.63
2018-04-11T13:50:47.379Z,16.51
2018-04-11T13:53:15.642Z,16.68
2018-04-11T13:55:43.930Z,16.73
2018-04-11T13:58:12.200Z,17.10
2018-04-11T14:00:40.464Z,16.72
2018-04-11T14:03:08.754Z,16.81
2018-04-11T14:05:37.035Z,17.22
2018-04-11T14:08:05.346Z,17.37
2018-04-11T14:10:33.606Z,17.40
2018-04-11T14:13:01.878Z,17.46
2018-04-11T14:15:30.161Z,17.06
2018-04-11T14:17:58.422Z,16.78
2018-04-11T14:20:26.718Z,16.98
2018-04-11T14:22:54.994Z,17.26
2018-04-11T14:25:23.275Z,17.19
2018-04-11T14:27:51.550Z,17.41
2018-04-11T14:30:19.823Z,16.92
2018-04-11T14:32:48.122Z,17.07
2018-04-11T14:35:16.386Z,17.17
2018-04-11T14:37:44.667Z,17.14
2018-04-11T14:40:12.955Z,17.23
2018-04-11T14:42:41.234Z,17.40
2018-04-11T14:45:09.559Z,16.86
2018-04-11T14:47:37.859Z,16.62
2018-04-11T14:50:06.110Z,16.80
2018-04-11T14:52:34.385Z,17.22
2018-04-11T14:55:02.659Z,17.07
2018-04-11T14:57:30.938Z,16.85
2018-04-11T14:59:59.206Z,16.87
2018-04-11T15:02:27.482Z,16.89
2018-04-11T15:04:55.754Z,16.93
2018-04-11T15:07:24.031Z,17.17
2018-04-11T15:09:52.310Z,16.98
2018-04-11T15:12:20.582Z,17.31
2018-04-11T15:14:48.851Z,17.48
2018-04-11T15:17:17.130Z,17.46
2018-04-11T15:19:45.399Z,17.71
2018-04-11T15:22:13.695Z,17.90
2018-04-11T15:24:41.963Z,17.91
2018-04-11T15:27:10.230Z,17.56
2018-04-11T15:29:38.518Z,17.46
2018-04-11T15:32:06.794Z,17.52
2018-04-11T15:34:35.070Z,17.37
2018-04-11T15:37:03.338Z,17.15
2018-04-11T15:39:31.602Z,17.25
2018-04-11T15:41:59.897Z,17.12
2018-04-11T15:44:28.875Z,17.04
2018-04-11T15:46:57.164Z,17.17
2018-04-11T15:49:25.470Z,16.95
2018-04-11T15:51:53.686Z,16.99
2018-04-11T15:54:21.962Z,16.88
2018-04-11T15:56:50.223Z,17.10
2018-04-11T15:59:18.510Z,17.07
2018-04-11T16:01:46.780Z,17.02
2018-04-11T16:04:15.047Z,17.23
2018-04-11T16:06:43.323Z,17.20
2018-04-11T16:09:11.586Z,17.35
2018-04-11T16:11:39.863Z,17.33
2018-04-11T16:14:08.131Z,17.30
2018-04-11T16:16:36.396Z,17.06
2018-04-11T16:19:04.674Z,17.19
2018-04-11T16:21:32.940Z,17.30
2018-04-11T16:24:01.217Z,17.06
2018-04-11T16:26:29.486Z,17.08
2018-04-11T16:28:57.754Z,17.00
2018-04-11T16:31:26.038Z,16.96
2018-04-11T16:33:54.318Z,16.99
2018-04-11T16:36:22.603Z,16.93
2018-04-11T16:38:50.875Z,16.86
2018-04-11T16:41:19.178Z,16.75
2018-04-11T16:43:47.439Z,16.85
2018-04-11T16:46:15.725Z,16.59
2018-04-11T16:48:44.006Z,16.87
2018-04-11T16:51:12.271Z,16.76
2018-04-11T16:53:40.549Z,16.75
2018-04-11T16:56:08.836Z,16.77
2018-04-11T16:58:37.114Z,16.71
2018-04-11T17:01:05.405Z,16.72
2018-04-11T17:03:33.706Z,16.85
2018-04-11T17:06:01.965Z,16.78
2018-04-11T17:08:30.253Z,16.74
2018-04-11T17:10:58.518Z,16.74
2018-04-11T17:13:26.806Z,16.86
2018-04-11T17:15:55.074Z,16.52
2018-04-11T17:18:23.347Z,16.55
2018-04-11T17:21:03.423Z,16.34
2018-04-11T17:23:43.355Z,16.32
2018-04-11T17:26:23.245Z,16.30
2018-04-11T17:29:03.050Z,16.12
2018-04-11T17:31:32.122Z,16.10
2018-04-11T17:34:00.392Z,16.35
2018-04-11T17:36:28.683Z,16.17
2018-04-11T17:38:56.969Z,16.10
2018-04-11T17:41:25.209Z,16.25
2018-04-11T17:43:53.482Z,16.30
2018-04-11T17:46:21.748Z,16.14
2018-04-11T17:48:50.031Z,16.20
2018-04-11T17:51:18.333Z,16.22
2018-04-11T17:53:46.562Z,16.22
2018-04-11T17:56:15.090Z,16.25
2018-04-11T17:58:44.218Z,16.07
2018-04-11T18:01:12.638Z,16.09
2018-04-11T18:03:40.915Z,16.05
2018-04-11T18:06:09.174Z,15.88
2018-04-11T18:08:37.445Z,15.81
2018-04-11T18:11:05.748Z,15.80
2018-04-11T18:13:34.010Z,15.87
2018-04-11T18:16:02.347Z,15.79
2018-04-11T18:18:30.861Z,15.78
2018-04-11T18:20:59.130Z,15.67
2018-04-11T18:23:27.390Z,15.47
2018-04-11T18:25:55.774Z,15.38
2018-04-11T18:28:24.045Z,15.37
2018-04-11T18:30:52.331Z,15.28
2018-04-11T18:33:20.595Z,15.23
2018-04-11T18:35:48.879Z,15.32
2018-04-11T18:38:17.165Z,15.32
2018-04-11T18:40:45.435Z,15.27
2018-04-11T18:43:13.715Z,15.16
2018-04-11T18:45:41.983Z,15.17
2018-04-11T18:48:10.267Z,15.19
2018-04-11T18:50:38.534Z,15.23
2018-04-11T18:53:06.801Z,15.12
2018-04-11T18:55:35.080Z,15.09
2018-04-11T18:58:03.350Z,14.98
2018-04-11T19:00:31.648Z,15.00
2018-04-11T19:03:00.055Z,14.99
2018-04-11T19:05:28.215Z,14.95
2018-04-11T19:07:56.499Z,14.95
2018-04-11T19:10:24.759Z,14.87
2018-04-11T19:12:53.059Z,14.83
2018-04-11T19:15:21.318Z,14.64
2018-04-11T19:17:49.611Z,14.51
2018-04-11T19:20:17.873Z,14.50
2018-04-11T19:22:46.146Z,14.33
2018-04-11T19:25:14.486Z,14.23
2018-04-11T19:27:42.710Z,14.33
2018-04-11T19:30:10.984Z,14.03
2018-04-11T19:32:39.270Z,13.98
2018-04-11T19:35:07.542Z,14.18
2018-04-11T19:37:35.823Z,14.27
2018-04-11T19:40:04.091Z,13.99
2018-04-11T19:42:32.357Z,14.10
2018-04-11T19:45:00.654Z,14.17
2018-04-11T19:47:28.942Z,14.14
2018-04-11T19:49:57.245Z,13.99
2018-04-11T19:52:25.491Z,14.09
2018-04-11T19:54:53.754Z,14.04
2018-04-11T19:57:22.035Z,14.10
2018-04-11T19:59:50.310Z,14.09
2018-04-11T20:02:18.593Z,14.01
2018-04-11T20:04:46.858Z,14.05
2018-04-11T20:07:15.139Z,13.99
2018-04-11T20:09:43.415Z,13.96
2018-04-11T20:12:11.686Z,13.88
2018-04-11T20:14:39.980Z,13.94
2018-04-11T20:17:08.250Z,13.77
2018-04-11T20:19:36.523Z,13.76
2018-04-11T20:22:04.796Z,13.68
2018-04-11T20:24:33.065Z,13.81
2018-04-11T20:27:01.348Z,13.80
2018-04-11T20:29:29.615Z,13.82
2018-04-11T20:31:57.883Z,13.58
2018-04-11T20:34:26.166Z,13.66
2018-04-11T20:36:54.435Z,13.44
2018-04-11T20:39:22.718Z,13.51
2018-04-11T20:41:50.981Z,13.48
2018-04-11T20:44:19.250Z,13.55
2018-04-11T20:46:47.526Z,13.47
2018-04-11T20:49:15.813Z,13.32
2018-04-11T20:51:44.095Z,13.35
2018-04-11T20:54:12.703Z,13.37
2018-04-11T20:56:40.963Z,13.25
2018-04-11T20:59:09.235Z,13.27
2018-04-11T21:01:37.502Z,13.22
2018-04-11T21:04:05.807Z,13.18
2018-04-11T21:06:34.142Z,13.02
2018-04-11T21:09:02.442Z,12.97
2018-04-11T21:11:30.714Z,12.95
2018-04-11T21:13:58.982Z,13.04
2018-04-11T21:16:27.270Z,13.08
2018-04-11T21:18:55.539Z,13.07
2018-04-11T21:21:23.811Z,12.97
2018-04-11T21:23:52.094Z,13.04
2018-04-11T21:26:20.374Z,12.90
2018-04-11T21:28:48.662Z,13.05
2018-04-11T21:31:16.930Z,13.08
2018-04-11T21:33:45.203Z,12.96
2018-04-11T21:36:13.492Z,13.01
2018-04-11T21:41:39.062Z,12.92
2018-04-11T21:44:07.317Z,12.94
2018-04-11T21:46:35.591Z,12.77
2018-04-11T21:49:03.857Z,12.85
2018-04-11T21:51:32.122Z,12.84
2018-04-11T21:54:00.407Z,12.83
2018-04-11T21:56:28.685Z,12.82
2018-04-11T21:58:56.954Z,12.89
2018-04-11T22:01:25.226Z,12.84
2018-04-11T22:03:53.502Z,12.65
2018-04-11T22:06:21.782Z,12.71
2018-04-11T22:08:50.055Z,12.70
2018-04-11T22:11:18.322Z,12.73
2018-04-11T22:13:46.597Z,12.67
2018-04-11T22:16:14.869Z,12.61
2018-04-11T22:18:43.166Z,12.61
2018-04-11T22:21:11.410Z,12.40
2018-04-11T22:23:39.681Z,12.47
2018-04-11T22:26:07.966Z,12.52
2018-04-11T22:28:36.225Z,12.42
2018-04-11T22:31:04.514Z,12.39
2018-04-11T22:33:32.782Z,12.34
2018-04-11T22:36:01.050Z,12.39
2018-04-11T22:38:29.326Z,12.36
2018-04-11T22:40:57.609Z,12.29
2018-04-11T22:43:25.908Z,12.35
2018-04-11T22:45:54.174Z,12.42
2018-04-11T22:48:22.439Z,12.39
2018-04-11T22:50:50.714Z,12.32
2018-04-11T22:53:18.978Z,12.09
2018-04-11T22:55:47.574Z,12.07
2018-04-11T22:58:15.856Z,12.19
2018-04-11T23:00:44.113Z,12.19
2018-04-11T23:03:12.387Z,12.18
2018-04-11T23:05:40.656Z,12.20
2018-04-11T23:08:08.970Z,12.09
2018-04-11T23:10:37.233Z,12.01
2018-04-11T23:13:05.496Z,12.03
2018-04-11T23:15:33.772Z,11.54
2018-04-11T23:18:02.962Z,11.83
2018-04-11T23:20:31.256Z,11.73
2018-04-11T23:22:59.531Z,11.94
2018-04-11T23:25:27.800Z,11.96
2018-04-11T23:27:56.073Z,11.67
2018-04-11T23:30:24.337Z,11.80
2018-04-11T23:32:52.615Z,11.90
2018-04-11T23:35:20.887Z,11.76
2018-04-11T23:37:49.152Z,11.73
2018-04-11T23:40:17.426Z,11.70
2018-04-11T23:42:45.684Z,11.74
2018-04-11T23:45:13.947Z,11.58
2018-04-11T23:47:42.240Z,11.68
2018-04-11T23:50:10.526Z,11.61
2018-04-11T23:52:38.789Z,11.61
2018-04-11T23:55:07.066Z,11.45
2018-04-11T23:57:35.342Z,11.56
